sensor_id;sensor_type;location;lat;lon;timestamp;P1;durP1;ratioP1;P2;durP2;ratioP2
12114;SDS011;6121;49.810;6.418;2023-07-31T00:00:14;34.53;;;11.07;;
12114;SDS011;6121;49.810;6.418;2023-07-31T00:02:40;37.95;;;12.13;;
12114;SDS011;6121;49.810;6.418;2023-07-31T00:05:08;34.25;;;10.90;;
12114;SDS011;6121;49.810;6.418;2023-07-31T00:07:34;45.53;;;14.27;;
12114;SDS011;6121;49.810;6.418;2023-07-31T00:09:59;34.43;;;10.93;;
12114;SDS011;6121;49.810;6.418;2023-07-31T00:12:25;34.13;;;10.85;;
12114;SDS011;6121;49.810;6.418;2023-07-31T00:14:51;40.80;;;12.82;;
12114;SDS011;6121;49.810;6.418;2023-07-31T00:17:17;32.95;;;10.52;;
12114;SDS011;6121;49.810;6.418;2023-07-31T00:19:43;37.50;;;11.98;;
12114;SDS011;6121;49.810;6.418;2023-07-31T00:22:11;31.40;;;10.27;;
12114;SDS011;6121;49.810;6.418;2023-07-31T00:24:37;36.70;;;11.80;;
12114;SDS011;6121;49.810;6.418;2023-07-31T00:27:03;39.30;;;12.40;;
12114;SDS011;6121;49.810;6.418;2023-07-31T00:29:29;39.55;;;12.27;;
12114;SDS011;6121;49.810;6.418;2023-07-31T00:31:56;35.67;;;11.25;;
12114;SDS011;6121;49.810;6.418;2023-07-31T00:34:22;28.63;;;9.23;;
12114;SDS011;6121;49.810;6.418;2023-07-31T00:36:47;40.05;;;12.50;;
12114;SDS011;6121;49.810;6.418;2023-07-31T00:39:15;35.72;;;11.40;;
12114;SDS011;6121;49.810;6.418;2023-07-31T00:41:43;36.95;;;11.73;;
12114;SDS011;6121;49.810;6.418;2023-07-31T00:44:09;41.03;;;13.20;;
12114;SDS011;6121;49.810;6.418;2023-07-31T00:46:35;34.20;;;11.02;;
12114;SDS011;6121;49.810;6.418;2023-07-31T00:49:01;34.42;;;10.55;;
12114;SDS011;6121;49.810;6.418;2023-07-31T00:51:28;36.17;;;11.27;;
12114;SDS011;6121;49.810;6.418;2023-07-31T00:53:55;43.80;;;13.82;;
12114;SDS011;6121;49.810;6.418;2023-07-31T00:56:22;34.70;;;10.90;;
12114;SDS011;6121;49.810;6.418;2023-07-31T00:58:48;39.47;;;12.57;;
12114;SDS011;6121;49.810;6.418;2023-07-31T01:01:15;38.07;;;11.93;;
12114;SDS011;6121;49.810;6.418;2023-07-31T01:03:41;37.33;;;11.60;;
12114;SDS011;6121;49.810;6.418;2023-07-31T01:08:50;37.95;;;12.07;;
12114;SDS011;6121;49.810;6.418;2023-07-31T01:11:27;29.20;;;9.32;;
12114;SDS011;6121;49.810;6.418;2023-07-31T01:13:57;43.15;;;13.65;;
12114;SDS011;6121;49.810;6.418;2023-07-31T01:16:25;28.75;;;9.30;;
12114;SDS011;6121;49.810;6.418;2023-07-31T01:18:51;37.00;;;11.60;;
12114;SDS011;6121;49.810;6.418;2023-07-31T01:26:38;35.40;;;11.20;;
12114;SDS011;6121;49.810;6.418;2023-07-31T01:29:10;37.00;;;11.90;;
12114;SDS011;6121;49.810;6.418;2023-07-31T01:32:01;38.13;;;11.87;;
12114;SDS011;6121;49.810;6.418;2023-07-31T01:34:29;32.25;;;10.32;;
12114;SDS011;6121;49.810;6.418;2023-07-31T01:36:55;38.13;;;12.10;;
12114;SDS011;6121;49.810;6.418;2023-07-31T01:39:23;36.85;;;11.60;;
12114;SDS011;6121;49.810;6.418;2023-07-31T01:41:49;38.95;;;12.15;;
12114;SDS011;6121;49.810;6.418;2023-07-31T01:44:15;39.58;;;12.52;;
12114;SDS011;6121;49.810;6.418;2023-07-31T01:46:41;32.58;;;10.18;;
12114;SDS011;6121;49.810;6.418;2023-07-31T01:49:07;37.22;;;11.88;;
12114;SDS011;6121;49.810;6.418;2023-07-31T01:51:33;31.40;;;10.10;;
12114;SDS011;6121;49.810;6.418;2023-07-31T01:54:00;42.78;;;13.63;;
12114;SDS011;6121;49.810;6.418;2023-07-31T01:56:26;41.83;;;13.05;;
12114;SDS011;6121;49.810;6.418;2023-07-31T01:58:53;33.13;;;10.70;;
12114;SDS011;6121;49.810;6.418;2023-07-31T02:01:19;33.27;;;10.53;;
12114;SDS011;6121;49.810;6.418;2023-07-31T02:03:44;35.28;;;11.20;;
12114;SDS011;6121;49.810;6.418;2023-07-31T02:06:10;38.15;;;12.07;;
12114;SDS011;6121;49.810;6.418;2023-07-31T02:08:36;36.53;;;11.57;;
12114;SDS011;6121;49.810;6.418;2023-07-31T02:11:02;36.90;;;11.57;;
12114;SDS011;6121;49.810;6.418;2023-07-31T02:13:30;29.60;;;9.33;;
12114;SDS011;6121;49.810;6.418;2023-07-31T02:15:56;36.45;;;11.27;;
12114;SDS011;6121;49.810;6.418;2023-07-31T02:18:22;50.78;;;15.85;;
12114;SDS011;6121;49.810;6.418;2023-07-31T02:20:51;32.75;;;10.15;;
12114;SDS011;6121;49.810;6.418;2023-07-31T02:23:18;35.13;;;10.90;;
12114;SDS011;6121;49.810;6.418;2023-07-31T02:25:44;31.48;;;9.93;;
12114;SDS011;6121;49.810;6.418;2023-07-31T02:28:11;51.50;;;16.23;;
12114;SDS011;6121;49.810;6.418;2023-07-31T02:30:37;32.17;;;9.93;;
12114;SDS011;6121;49.810;6.418;2023-07-31T02:33:03;38.00;;;12.00;;
12114;SDS011;6121;49.810;6.418;2023-07-31T02:35:30;29.95;;;9.52;;
12114;SDS011;6121;49.810;6.418;2023-07-31T02:37:56;44.35;;;14.05;;
12114;SDS011;6121;49.810;6.418;2023-07-31T02:40:22;35.03;;;10.93;;
12114;SDS011;6121;49.810;6.418;2023-07-31T02:42:48;32.30;;;10.15;;
12114;SDS011;6121;49.810;6.418;2023-07-31T02:45:15;35.67;;;11.25;;
12114;SDS011;6121;49.810;6.418;2023-07-31T02:47:41;45.37;;;14.00;;
12114;SDS011;6121;49.810;6.418;2023-07-31T02:50:07;36.10;;;11.38;;
12114;SDS011;6121;49.810;6.418;2023-07-31T02:52:33;41.83;;;13.02;;
12114;SDS011;6121;49.810;6.418;2023-07-31T02:54:59;37.05;;;11.52;;
12114;SDS011;6121;49.810;6.418;2023-07-31T02:57:25;41.75;;;13.20;;
12114;SDS011;6121;49.810;6.418;2023-07-31T02:59:51;32.60;;;10.18;;
12114;SDS011;6121;49.810;6.418;2023-07-31T03:02:16;35.90;;;11.30;;
12114;SDS011;6121;49.810;6.418;2023-07-31T03:04:42;28.25;;;8.80;;
12114;SDS011;6121;49.810;6.418;2023-07-31T03:07:08;39.58;;;12.32;;
12114;SDS011;6121;49.810;6.418;2023-07-31T03:09:34;31.27;;;10.15;;
12114;SDS011;6121;49.810;6.418;2023-07-31T03:12:00;32.87;;;10.37;;
12114;SDS011;6121;49.810;6.418;2023-07-31T03:14:27;29.27;;;9.50;;
12114;SDS011;6121;49.810;6.418;2023-07-31T03:16:53;29.03;;;9.27;;
12114;SDS011;6121;49.810;6.418;2023-07-31T03:19:19;38.65;;;12.32;;
12114;SDS011;6121;49.810;6.418;2023-07-31T03:21:45;33.95;;;10.82;;
12114;SDS011;6121;49.810;6.418;2023-07-31T03:24:11;36.88;;;11.77;;
12114;SDS011;6121;49.810;6.418;2023-07-31T03:26:39;34.90;;;11.32;;
12114;SDS011;6121;49.810;6.418;2023-07-31T03:29:07;39.50;;;12.68;;
12114;SDS011;6121;49.810;6.418;2023-07-31T03:31:33;35.17;;;11.30;;
12114;SDS011;6121;49.810;6.418;2023-07-31T03:33:59;39.17;;;12.48;;
12114;SDS011;6121;49.810;6.418;2023-07-31T03:36:26;39.90;;;12.30;;
12114;SDS011;6121;49.810;6.418;2023-07-31T03:38:52;34.38;;;11.25;;
12114;SDS011;6121;49.810;6.418;2023-07-31T03:41:18;36.25;;;11.43;;
12114;SDS011;6121;49.810;6.418;2023-07-31T03:43:45;34.83;;;11.03;;
12114;SDS011;6121;49.810;6.418;2023-07-31T03:46:14;42.97;;;13.43;;
12114;SDS011;6121;49.810;6.418;2023-07-31T03:48:40;43.13;;;13.80;;
12114;SDS011;6121;49.810;6.418;2023-07-31T03:51:06;38.53;;;12.00;;
12114;SDS011;6121;49.810;6.418;2023-07-31T03:53:32;37.42;;;12.18;;
12114;SDS011;6121;49.810;6.418;2023-07-31T03:55:57;38.30;;;12.32;;
12114;SDS011;6121;49.810;6.418;2023-07-31T03:58:23;53.03;;;16.97;;
12114;SDS011;6121;49.810;6.418;2023-07-31T04:00:49;30.00;;;9.40;;
12114;SDS011;6121;49.810;6.418;2023-07-31T04:03:15;35.97;;;11.63;;
12114;SDS011;6121;49.810;6.418;2023-07-31T04:05:41;38.83;;;12.55;;
12114;SDS011;6121;49.810;6.418;2023-07-31T04:08:07;48.90;;;15.52;;
12114;SDS011;6121;49.810;6.418;2023-07-31T04:10:33;33.55;;;10.63;;
12114;SDS011;6121;49.810;6.418;2023-07-31T04:12:59;34.33;;;11.13;;
12114;SDS011;6121;49.810;6.418;2023-07-31T04:15:25;36.40;;;11.40;;
12114;SDS011;6121;49.810;6.418;2023-07-31T04:17:51;45.53;;;14.65;;
12114;SDS011;6121;49.810;6.418;2023-07-31T04:20:17;38.20;;;12.25;;
12114;SDS011;6121;49.810;6.418;2023-07-31T04:22:43;37.75;;;11.90;;
12114;SDS011;6121;49.810;6.418;2023-07-31T04:25:09;34.23;;;11.17;;
12114;SDS011;6121;49.810;6.418;2023-07-31T04:27:34;45.78;;;14.35;;
12114;SDS011;6121;49.810;6.418;2023-07-31T04:30:00;34.05;;;10.88;;
12114;SDS011;6121;49.810;6.418;2023-07-31T04:32:26;37.08;;;11.73;;
12114;SDS011;6121;49.810;6.418;2023-07-31T04:34:52;32.53;;;10.30;;
12114;SDS011;6121;49.810;6.418;2023-07-31T04:37:18;43.23;;;13.53;;
12114;SDS011;6121;49.810;6.418;2023-07-31T04:39:44;28.40;;;9.07;;
12114;SDS011;6121;49.810;6.418;2023-07-31T04:42:09;30.33;;;9.45;;
12114;SDS011;6121;49.810;6.418;2023-07-31T04:44:35;35.88;;;11.23;;
12114;SDS011;6121;49.810;6.418;2023-07-31T04:47:01;33.53;;;10.77;;
12114;SDS011;6121;49.810;6.418;2023-07-31T04:49:27;36.33;;;11.35;;
12114;SDS011;6121;49.810;6.418;2023-07-31T04:51:53;37.03;;;11.60;;
12114;SDS011;6121;49.810;6.418;2023-07-31T04:54:19;37.03;;;11.70;;
12114;SDS011;6121;49.810;6.418;2023-07-31T04:56:44;32.50;;;10.33;;
12114;SDS011;6121;49.810;6.418;2023-07-31T04:59:10;33.90;;;10.60;;
12114;SDS011;6121;49.810;6.418;2023-07-31T05:01:36;37.92;;;11.73;;
12114;SDS011;6121;49.810;6.418;2023-07-31T05:04:02;36.47;;;11.43;;
12114;SDS011;6121;49.810;6.418;2023-07-31T05:06:28;44.70;;;13.95;;
12114;SDS011;6121;49.810;6.418;2023-07-31T05:08:54;35.95;;;11.23;;
12114;SDS011;6121;49.810;6.418;2023-07-31T05:11:20;25.52;;;8.50;;
12114;SDS011;6121;49.810;6.418;2023-07-31T05:13:46;39.13;;;12.33;;
12114;SDS011;6121;49.810;6.418;2023-07-31T05:16:11;41.40;;;12.90;;
12114;SDS011;6121;49.810;6.418;2023-07-31T05:18:37;46.67;;;14.60;;
12114;SDS011;6121;49.810;6.418;2023-07-31T05:21:03;31.75;;;9.80;;
12114;SDS011;6121;49.810;6.418;2023-07-31T05:23:29;40.30;;;12.67;;
12114;SDS011;6121;49.810;6.418;2023-07-31T05:26:02;31.48;;;9.98;;
12114;SDS011;6121;49.810;6.418;2023-07-31T05:28:31;46.67;;;14.40;;
12114;SDS011;6121;49.810;6.418;2023-07-31T05:31:00;37.92;;;11.90;;
12114;SDS011;6121;49.810;6.418;2023-07-31T05:33:26;40.85;;;12.70;;
12114;SDS011;6121;49.810;6.418;2023-07-31T05:35:52;34.30;;;10.82;;
12114;SDS011;6121;49.810;6.418;2023-07-31T05:38:18;51.78;;;16.10;;
12114;SDS011;6121;49.810;6.418;2023-07-31T05:40:43;33.40;;;10.40;;
12114;SDS011;6121;49.810;6.418;2023-07-31T05:43:09;35.90;;;11.07;;
12114;SDS011;6121;49.810;6.418;2023-07-31T05:45:35;37.57;;;11.77;;
12114;SDS011;6121;49.810;6.418;2023-07-31T05:48:02;46.85;;;14.75;;
12114;SDS011;6121;49.810;6.418;2023-07-31T05:50:28;35.42;;;11.25;;
12114;SDS011;6121;49.810;6.418;2023-07-31T05:52:54;33.75;;;10.48;;
12114;SDS011;6121;49.810;6.418;2023-07-31T05:55:20;33.00;;;10.23;;
12114;SDS011;6121;49.810;6.418;2023-07-31T05:57:46;47.90;;;14.85;;
12114;SDS011;6121;49.810;6.418;2023-07-31T06:00:12;33.30;;;10.35;;
12114;SDS011;6121;49.810;6.418;2023-07-31T06:02:38;60.58;;;18.27;;
12114;SDS011;6121;49.810;6.418;2023-07-31T06:05:05;30.93;;;9.73;;
12114;SDS011;6121;49.810;6.418;2023-07-31T06:07:31;49.78;;;15.05;;
12114;SDS011;6121;49.810;6.418;2023-07-31T06:09:57;33.67;;;10.77;;
12114;SDS011;6121;49.810;6.418;2023-07-31T06:12:28;40.22;;;12.60;;
12114;SDS011;6121;49.810;6.418;2023-07-31T06:14:54;35.83;;;11.25;;
12114;SDS011;6121;49.810;6.418;2023-07-31T06:17:20;39.80;;;12.48;;
12114;SDS011;6121;49.810;6.418;2023-07-31T06:19:46;34.80;;;11.13;;
12114;SDS011;6121;49.810;6.418;2023-07-31T06:22:12;37.80;;;11.88;;
12114;SDS011;6121;49.810;6.418;2023-07-31T06:24:38;36.97;;;11.52;;
12114;SDS011;6121;49.810;6.418;2023-07-31T06:27:04;33.17;;;10.60;;
12114;SDS011;6121;49.810;6.418;2023-07-31T06:29:31;41.30;;;13.18;;
12114;SDS011;6121;49.810;6.418;2023-07-31T06:31:57;40.38;;;12.55;;
12114;SDS011;6121;49.810;6.418;2023-07-31T06:34:23;35.17;;;11.10;;
12114;SDS011;6121;49.810;6.418;2023-07-31T06:36:48;40.28;;;12.63;;
12114;SDS011;6121;49.810;6.418;2023-07-31T06:39:14;34.47;;;10.90;;
12114;SDS011;6121;49.810;6.418;2023-07-31T06:41:41;39.38;;;12.23;;
12114;SDS011;6121;49.810;6.418;2023-07-31T06:44:10;32.28;;;10.40;;
12114;SDS011;6121;49.810;6.418;2023-07-31T06:46:36;40.70;;;12.77;;
12114;SDS011;6121;49.810;6.418;2023-07-31T06:49:03;38.92;;;12.40;;
12114;SDS011;6121;49.810;6.418;2023-07-31T06:51:28;40.90;;;12.57;;
12114;SDS011;6121;49.810;6.418;2023-07-31T06:53:56;38.87;;;12.33;;
12114;SDS011;6121;49.810;6.418;2023-07-31T06:56:23;34.75;;;10.73;;
12114;SDS011;6121;49.810;6.418;2023-07-31T06:58:49;52.97;;;16.48;;
12114;SDS011;6121;49.810;6.418;2023-07-31T07:01:15;42.55;;;13.32;;
12114;SDS011;6121;49.810;6.418;2023-07-31T07:03:40;46.80;;;14.60;;
12114;SDS011;6121;49.810;6.418;2023-07-31T07:06:06;35.10;;;11.27;;
12114;SDS011;6121;49.810;6.418;2023-07-31T07:08:32;55.30;;;17.17;;
12114;SDS011;6121;49.810;6.418;2023-07-31T07:10:58;41.33;;;12.83;;
12114;SDS011;6121;49.810;6.418;2023-07-31T07:13:24;35.30;;;11.07;;
12114;SDS011;6121;49.810;6.418;2023-07-31T07:15:49;49.00;;;15.13;;
12114;SDS011;6121;49.810;6.418;2023-07-31T07:18:16;53.28;;;16.60;;
12114;SDS011;6121;49.810;6.418;2023-07-31T07:20:50;38.07;;;11.83;;
12114;SDS011;6121;49.810;6.418;2023-07-31T07:23:16;39.90;;;12.40;;
12114;SDS011;6121;49.810;6.418;2023-07-31T07:25:43;42.20;;;13.27;;
12114;SDS011;6121;49.810;6.418;2023-07-31T07:28:10;56.22;;;17.50;;
12114;SDS011;6121;49.810;6.418;2023-07-31T07:30:36;36.83;;;11.70;;
12114;SDS011;6121;49.810;6.418;2023-07-31T07:33:02;34.78;;;11.15;;
12114;SDS011;6121;49.810;6.418;2023-07-31T07:35:28;40.05;;;12.23;;
12114;SDS011;6121;49.810;6.418;2023-07-31T07:37:53;55.15;;;17.08;;
12114;SDS011;6121;49.810;6.418;2023-07-31T07:40:20;34.28;;;10.88;;
12114;SDS011;6121;49.810;6.418;2023-07-31T07:42:46;43.42;;;13.35;;
12114;SDS011;6121;49.810;6.418;2023-07-31T07:45:12;42.72;;;13.55;;
12114;SDS011;6121;49.810;6.418;2023-07-31T07:47:40;51.45;;;16.40;;
12114;SDS011;6121;49.810;6.418;2023-07-31T07:50:06;41.65;;;13.20;;
12114;SDS011;6121;49.810;6.418;2023-07-31T07:52:32;47.95;;;15.05;;
12114;SDS011;6121;49.810;6.418;2023-07-31T07:54:58;46.67;;;14.85;;
12114;SDS011;6121;49.810;6.418;2023-07-31T07:57:25;41.75;;;13.32;;
12114;SDS011;6121;49.810;6.418;2023-07-31T07:59:55;49.80;;;15.52;;
12114;SDS011;6121;49.810;6.418;2023-07-31T08:02:21;40.95;;;12.93;;
12114;SDS011;6121;49.810;6.418;2023-07-31T08:04:48;40.75;;;12.65;;
12114;SDS011;6121;49.810;6.418;2023-07-31T08:07:14;34.20;;;11.02;;
12114;SDS011;6121;49.810;6.418;2023-07-31T08:09:40;42.00;;;13.33;;
12114;SDS011;6121;49.810;6.418;2023-07-31T08:12:06;41.10;;;13.10;;
12114;SDS011;6121;49.810;6.418;2023-07-31T08:14:32;35.15;;;11.18;;
12114;SDS011;6121;49.810;6.418;2023-07-31T08:16:58;40.67;;;12.53;;
12114;SDS011;6121;49.810;6.418;2023-07-31T08:19:25;45.05;;;14.18;;
12114;SDS011;6121;49.810;6.418;2023-07-31T08:21:51;50.17;;;15.52;;
12114;SDS011;6121;49.810;6.418;2023-07-31T08:24:17;45.10;;;13.93;;
12114;SDS011;6121;49.810;6.418;2023-07-31T08:26:43;43.45;;;13.60;;
12114;SDS011;6121;49.810;6.418;2023-07-31T08:29:08;43.65;;;13.68;;
12114;SDS011;6121;49.810;6.418;2023-07-31T08:31:34;38.53;;;12.10;;
12114;SDS011;6121;49.810;6.418;2023-07-31T08:34:00;44.05;;;13.98;;
12114;SDS011;6121;49.810;6.418;2023-07-31T08:36:26;36.30;;;11.25;;
12114;SDS011;6121;49.810;6.418;2023-07-31T08:38:52;46.67;;;14.75;;
12114;SDS011;6121;49.810;6.418;2023-07-31T08:41:18;50.70;;;16.00;;
12114;SDS011;6121;49.810;6.418;2023-07-31T08:43:47;27.73;;;9.05;;
12114;SDS011;6121;49.810;6.418;2023-07-31T08:46:16;38.63;;;12.05;;
12114;SDS011;6121;49.810;6.418;2023-07-31T08:48:42;52.55;;;16.55;;
12114;SDS011;6121;49.810;6.418;2023-07-31T08:51:09;36.55;;;11.43;;
12114;SDS011;6121;49.810;6.418;2023-07-31T08:53:35;36.77;;;11.30;;
12114;SDS011;6121;49.810;6.418;2023-07-31T08:56:01;42.63;;;13.25;;
12114;SDS011;6121;49.810;6.418;2023-07-31T08:58:30;46.50;;;14.45;;
12114;SDS011;6121;49.810;6.418;2023-07-31T09:00:58;47.27;;;14.73;;
12114;SDS011;6121;49.810;6.418;2023-07-31T09:03:28;40.25;;;12.52;;
12114;SDS011;6121;49.810;6.418;2023-07-31T09:05:57;48.28;;;14.88;;
12114;SDS011;6121;49.810;6.418;2023-07-31T09:08:25;56.20;;;17.67;;
12114;SDS011;6121;49.810;6.418;2023-07-31T09:11:00;41.23;;;12.57;;
12114;SDS011;6121;49.810;6.418;2023-07-31T09:13:31;43.28;;;13.13;;
12114;SDS011;6121;49.810;6.418;2023-07-31T09:15:57;49.75;;;15.00;;
12114;SDS011;6121;49.810;6.418;2023-07-31T09:18:23;59.65;;;18.50;;
12114;SDS011;6121;49.810;6.418;2023-07-31T09:21:04;40.42;;;12.50;;
12114;SDS011;6121;49.810;6.418;2023-07-31T09:23:41;39.60;;;12.47;;
12114;SDS011;6121;49.810;6.418;2023-07-31T09:26:07;49.23;;;15.30;;
12114;SDS011;6121;49.810;6.418;2023-07-31T09:28:33;60.88;;;18.67;;
12114;SDS011;6121;49.810;6.418;2023-07-31T09:30:59;42.17;;;12.70;;
12114;SDS011;6121;49.810;6.418;2023-07-31T09:33:25;40.00;;;12.30;;
12114;SDS011;6121;49.810;6.418;2023-07-31T09:35:51;41.22;;;12.38;;
12114;SDS011;6121;49.810;6.418;2023-07-31T09:38:18;63.85;;;15.75;;
12114;SDS011;6121;49.810;6.418;2023-07-31T09:40:45;50.30;;;11.70;;
12114;SDS011;6121;49.810;6.418;2023-07-31T09:43:19;62.85;;;13.82;;
12114;SDS011;6121;49.810;6.418;2023-07-31T09:45:46;70.78;;;15.25;;
12114;SDS011;6121;49.810;6.418;2023-07-31T09:48:13;70.70;;;16.30;;
12114;SDS011;6121;49.810;6.418;2023-07-31T09:50:43;51.00;;;12.27;;
12114;SDS011;6121;49.810;6.418;2023-07-31T09:53:10;61.47;;;13.73;;
12114;SDS011;6121;49.810;6.418;2023-07-31T09:55:44;72.32;;;13.10;;
12114;SDS011;6121;49.810;6.418;2023-07-31T09:58:11;101.20;;;18.03;;
12114;SDS011;6121;49.810;6.418;2023-07-31T10:00:38;73.22;;;13.35;;
12114;SDS011;6121;49.810;6.418;2023-07-31T10:03:05;72.60;;;13.15;;
12114;SDS011;6121;49.810;6.418;2023-07-31T10:05:36;72.55;;;12.98;;
12114;SDS011;6121;49.810;6.418;2023-07-31T10:08:06;99.83;;;17.70;;
12114;SDS011;6121;49.810;6.418;2023-07-31T10:10:35;80.18;;;14.18;;
12114;SDS011;6121;49.810;6.418;2023-07-31T10:13:02;75.45;;;13.40;;
12114;SDS011;6121;49.810;6.418;2023-07-31T10:15:31;76.18;;;13.35;;
12114;SDS011;6121;49.810;6.418;2023-07-31T10:17:57;111.22;;;19.23;;
12114;SDS011;6121;49.810;6.418;2023-07-31T10:20:24;88.78;;;15.35;;
12114;SDS011;6121;49.810;6.418;2023-07-31T10:22:51;87.78;;;15.18;;
12114;SDS011;6121;49.810;6.418;2023-07-31T10:25:19;96.13;;;16.67;;
12114;SDS011;6121;49.810;6.418;2023-07-31T10:27:47;100.57;;;17.30;;
12114;SDS011;6121;49.810;6.418;2023-07-31T10:30:15;98.18;;;16.92;;
12114;SDS011;6121;49.810;6.418;2023-07-31T10:32:42;95.38;;;16.63;;
12114;SDS011;6121;49.810;6.418;2023-07-31T10:35:09;81.60;;;14.60;;
12114;SDS011;6121;49.810;6.418;2023-07-31T10:37:37;101.28;;;17.95;;
12114;SDS011;6121;49.810;6.418;2023-07-31T10:40:10;89.90;;;16.13;;
12114;SDS011;6121;49.810;6.418;2023-07-31T10:42:48;92.15;;;16.52;;
12114;SDS011;6121;49.810;6.418;2023-07-31T10:48:00;105.63;;;19.60;;
12114;SDS011;6121;49.810;6.418;2023-07-31T10:50:28;79.15;;;14.70;;
12114;SDS011;6121;49.810;6.418;2023-07-31T10:52:58;96.22;;;17.67;;
12114;SDS011;6121;49.810;6.418;2023-07-31T10:57:52;114.97;;;20.80;;
12114;SDS011;6121;49.810;6.418;2023-07-31T11:02:59;76.25;;;13.68;;
12114;SDS011;6121;49.810;6.418;2023-07-31T11:05:40;96.73;;;17.10;;
12114;SDS011;6121;49.810;6.418;2023-07-31T11:08:29;137.38;;;23.60;;
12114;SDS011;6121;49.810;6.418;2023-07-31T11:13:30;93.85;;;16.05;;
12114;SDS011;6121;49.810;6.418;2023-07-31T11:15:56;112.25;;;18.65;;
12114;SDS011;6121;49.810;6.418;2023-07-31T11:18:23;119.70;;;19.85;;
12114;SDS011;6121;49.810;6.418;2023-07-31T11:20:49;84.30;;;14.20;;
12114;SDS011;6121;49.810;6.418;2023-07-31T11:23:16;101.73;;;16.80;;
12114;SDS011;6121;49.810;6.418;2023-07-31T11:25:42;89.97;;;14.90;;
12114;SDS011;6121;49.810;6.418;2023-07-31T11:28:09;118.38;;;19.42;;
12114;SDS011;6121;49.810;6.418;2023-07-31T11:30:39;100.25;;;16.38;;
12114;SDS011;6121;49.810;6.418;2023-07-31T11:33:06;103.53;;;16.80;;
12114;SDS011;6121;49.810;6.418;2023-07-31T11:35:34;94.40;;;15.27;;
12114;SDS011;6121;49.810;6.418;2023-07-31T11:38:02;127.50;;;20.23;;
12114;SDS011;6121;49.810;6.418;2023-07-31T11:40:28;88.72;;;14.23;;
12114;SDS011;6121;49.810;6.418;2023-07-31T11:43:03;102.87;;;16.27;;
12114;SDS011;6121;49.810;6.418;2023-07-31T11:45:30;85.00;;;13.52;;
12114;SDS011;6121;49.810;6.418;2023-07-31T11:47:56;119.10;;;18.52;;
12114;SDS011;6121;49.810;6.418;2023-07-31T11:50:23;109.18;;;16.63;;
12114;SDS011;6121;49.810;6.418;2023-07-31T11:52:52;136.73;;;19.95;;
12114;SDS011;6121;49.810;6.418;2023-07-31T11:55:22;102.93;;;14.35;;
12114;SDS011;6121;49.810;6.418;2023-07-31T11:57:49;142.68;;;21.08;;
12114;SDS011;6121;49.810;6.418;2023-07-31T12:00:15;128.77;;;17.83;;
12114;SDS011;6121;49.810;6.418;2023-07-31T12:02:42;111.57;;;19.17;;
12114;SDS011;6121;49.810;6.418;2023-07-31T12:05:12;79.63;;;14.10;;
12114;SDS011;6121;49.810;6.418;2023-07-31T12:07:45;118.72;;;20.60;;
12114;SDS011;6121;49.810;6.418;2023-07-31T12:10:25;85.60;;;15.32;;
12114;SDS011;6121;49.810;6.418;2023-07-31T12:13:04;86.38;;;15.50;;
12114;SDS011;6121;49.810;6.418;2023-07-31T12:15:40;82.33;;;14.87;;
12114;SDS011;6121;49.810;6.418;2023-07-31T12:18:08;112.03;;;19.95;;
12114;SDS011;6121;49.810;6.418;2023-07-31T12:20:43;86.35;;;15.63;;
12114;SDS011;6121;49.810;6.418;2023-07-31T12:25:44;80.95;;;15.07;;
12114;SDS011;6121;49.810;6.418;2023-07-31T12:28:10;92.80;;;17.20;;
12114;SDS011;6121;49.810;6.418;2023-07-31T12:30:39;76.33;;;14.50;;
12114;SDS011;6121;49.810;6.418;2023-07-31T12:33:11;85.88;;;16.13;;
12114;SDS011;6121;49.810;6.418;2023-07-31T12:35:42;77.82;;;14.73;;
12114;SDS011;6121;49.810;6.418;2023-07-31T12:38:09;98.00;;;18.48;;
12114;SDS011;6121;49.810;6.418;2023-07-31T12:40:37;62.72;;;12.02;;
12114;SDS011;6121;49.810;6.418;2023-07-31T12:43:04;83.93;;;15.90;;
12114;SDS011;6121;49.810;6.418;2023-07-31T12:45:31;77.80;;;14.88;;
12114;SDS011;6121;49.810;6.418;2023-07-31T12:47:58;95.05;;;18.23;;
12114;SDS011;6121;49.810;6.418;2023-07-31T12:50:24;80.00;;;15.40;;
12114;SDS011;6121;49.810;6.418;2023-07-31T12:52:51;94.07;;;17.92;;
12114;SDS011;6121;49.810;6.418;2023-07-31T12:55:21;74.97;;;14.67;;
12114;SDS011;6121;49.810;6.418;2023-07-31T12:57:47;102.57;;;19.33;;
12114;SDS011;6121;49.810;6.418;2023-07-31T13:00:13;67.50;;;13.23;;
12114;SDS011;6121;49.810;6.418;2023-07-31T13:02:40;86.25;;;16.70;;
12114;SDS011;6121;49.810;6.418;2023-07-31T13:05:06;75.30;;;14.65;;
12114;SDS011;6121;49.810;6.418;2023-07-31T13:07:31;85.80;;;16.75;;
12114;SDS011;6121;49.810;6.418;2023-07-31T13:09:57;85.93;;;16.90;;
12114;SDS011;6121;49.810;6.418;2023-07-31T13:12:23;81.57;;;16.27;;
12114;SDS011;6121;49.810;6.418;2023-07-31T13:14:50;66.47;;;13.27;;
12114;SDS011;6121;49.810;6.418;2023-07-31T13:17:16;77.25;;;15.38;;
12114;SDS011;6121;49.810;6.418;2023-07-31T13:19:43;80.85;;;16.17;;
12114;SDS011;6121;49.810;6.418;2023-07-31T13:22:09;73.55;;;14.75;;
12114;SDS011;6121;49.810;6.418;2023-07-31T13:24:35;79.72;;;15.68;;
12114;SDS011;6121;49.810;6.418;2023-07-31T13:27:00;81.68;;;16.35;;
12114;SDS011;6121;49.810;6.418;2023-07-31T13:29:26;80.83;;;15.83;;
12114;SDS011;6121;49.810;6.418;2023-07-31T13:31:52;74.28;;;14.70;;
12114;SDS011;6121;49.810;6.418;2023-07-31T13:34:18;75.80;;;15.10;;
12114;SDS011;6121;49.810;6.418;2023-07-31T13:36:44;71.65;;;13.98;;
12114;SDS011;6121;49.810;6.418;2023-07-31T13:39:11;88.63;;;17.38;;
12114;SDS011;6121;49.810;6.418;2023-07-31T13:41:37;68.40;;;13.33;;
12114;SDS011;6121;49.810;6.418;2023-07-31T13:44:03;84.60;;;16.25;;
12114;SDS011;6121;49.810;6.418;2023-07-31T13:46:29;95.75;;;18.13;;
12114;SDS011;6121;49.810;6.418;2023-07-31T13:48:55;79.40;;;15.23;;
12114;SDS011;6121;49.810;6.418;2023-07-31T13:51:24;75.47;;;14.02;;
12114;SDS011;6121;49.810;6.418;2023-07-31T13:53:49;85.13;;;15.73;;
12114;SDS011;6121;49.810;6.418;2023-07-31T13:56:15;105.87;;;19.13;;
12114;SDS011;6121;49.810;6.418;2023-07-31T13:58:41;102.93;;;18.30;;
12114;SDS011;6121;49.810;6.418;2023-07-31T14:01:07;86.38;;;14.80;;
12114;SDS011;6121;49.810;6.418;2023-07-31T14:03:34;105.82;;;16.90;;
12114;SDS011;6121;49.810;6.418;2023-07-31T14:06:00;79.85;;;14.07;;
12114;SDS011;6121;49.810;6.418;2023-07-31T14:08:26;119.23;;;20.77;;
12114;SDS011;6121;49.810;6.418;2023-07-31T14:10:52;91.63;;;16.05;;
12114;SDS011;6121;49.810;6.418;2023-07-31T14:13:17;84.25;;;14.90;;
12114;SDS011;6121;49.810;6.418;2023-07-31T14:15:43;87.23;;;15.60;;
12114;SDS011;6121;49.810;6.418;2023-07-31T14:18:10;139.43;;;24.13;;
12114;SDS011;6121;49.810;6.418;2023-07-31T14:20:36;96.93;;;16.85;;
12114;SDS011;6121;49.810;6.418;2023-07-31T14:23:02;100.45;;;17.38;;
12114;SDS011;6121;49.810;6.418;2023-07-31T14:25:28;71.43;;;12.57;;
12114;SDS011;6121;49.810;6.418;2023-07-31T14:27:54;118.63;;;20.60;;
12114;SDS011;6121;49.810;6.418;2023-07-31T14:30:20;99.57;;;17.35;;
12114;SDS011;6121;49.810;6.418;2023-07-31T14:32:46;100.60;;;17.52;;
12114;SDS011;6121;49.810;6.418;2023-07-31T14:35:13;99.57;;;17.40;;
12114;SDS011;6121;49.810;6.418;2023-07-31T14:37:39;106.78;;;18.70;;
12114;SDS011;6121;49.810;6.418;2023-07-31T14:40:10;96.07;;;16.67;;
12114;SDS011;6121;49.810;6.418;2023-07-31T14:42:37;107.47;;;18.50;;
12114;SDS011;6121;49.810;6.418;2023-07-31T14:45:04;70.80;;;12.53;;
12114;SDS011;6121;49.810;6.418;2023-07-31T14:47:31;102.57;;;17.50;;
12114;SDS011;6121;49.810;6.418;2023-07-31T14:49:57;122.53;;;20.57;;
12114;SDS011;6121;49.810;6.418;2023-07-31T14:52:23;101.85;;;17.38;;